sensor_id;sensor_type;location;lat;lon;timestamp;P1;durP1;ratioP1;P2;durP2;ratioP2
64188;SDS011;50493;50.970;10.082;2022-08-05T00:01:36;5.57;;;3.58;;
64188;SDS011;50493;50.970;10.082;2022-08-05T00:04:03;5.18;;;3.75;;
64188;SDS011;50493;50.970;10.082;2022-08-05T00:06:29;4.57;;;3.75;;
64188;SDS011;50493;50.970;10.082;2022-08-05T00:08:54;6.88;;;3.78;;
64188;SDS011;50493;50.970;10.082;2022-08-05T00:11:19;4.72;;;3.50;;
64188;SDS011;50493;50.970;10.082;2022-08-05T00:13:45;5.47;;;3.95;;
64188;SDS011;50493;50.970;10.082;2022-08-05T00:16:11;4.63;;;3.97;;
64188;SDS011;50493;50.970;10.082;2022-08-05T00:18:38;4.50;;;3.72;;
64188;SDS011;50493;50.970;10.082;2022-08-05T00:21:13;5.75;;;3.78;;
64188;SDS011;50493;50.970;10.082;2022-08-05T00:23:39;4.95;;;3.40;;
64188;SDS011;50493;50.970;10.082;2022-08-05T00:26:06;4.43;;;3.65;;
64188;SDS011;50493;50.970;10.082;2022-08-05T00:28:32;4.35;;;3.70;;
64188;SDS011;50493;50.970;10.082;2022-08-05T00:30:58;5.00;;;3.83;;
64188;SDS011;50493;50.970;10.082;2022-08-05T00:33:23;4.35;;;3.65;;
64188;SDS011;50493;50.970;10.082;2022-08-05T00:35:49;4.57;;;3.75;;
64188;SDS011;50493;50.970;10.082;2022-08-05T00:38:15;6.10;;;3.85;;
64188;SDS011;50493;50.970;10.082;2022-08-05T00:40:44;6.00;;;3.97;;
64188;SDS011;50493;50.970;10.082;2022-08-05T00:43:11;4.45;;;3.90;;
64188;SDS011;50493;50.970;10.082;2022-08-05T00:45:36;6.60;;;4.13;;
64188;SDS011;50493;50.970;10.082;2022-08-05T00:48:02;7.00;;;4.30;;
64188;SDS011;50493;50.970;10.082;2022-08-05T00:50:27;5.45;;;4.38;;
64188;SDS011;50493;50.970;10.082;2022-08-05T00:52:53;6.50;;;4.05;;
64188;SDS011;50493;50.970;10.082;2022-08-05T00:55:19;4.55;;;4.05;;
64188;SDS011;50493;50.970;10.082;2022-08-05T00:57:45;5.43;;;4.10;;
64188;SDS011;50493;50.970;10.082;2022-08-05T01:00:10;5.40;;;4.00;;
64188;SDS011;50493;50.970;10.082;2022-08-05T01:02:37;5.70;;;4.20;;
64188;SDS011;50493;50.970;10.082;2022-08-05T01:05:02;6.18;;;4.20;;
64188;SDS011;50493;50.970;10.082;2022-08-05T01:07:28;5.07;;;3.83;;
64188;SDS011;50493;50.970;10.082;2022-08-05T01:09:53;5.88;;;4.18;;
64188;SDS011;50493;50.970;10.082;2022-08-05T01:12:20;5.35;;;4.53;;
64188;SDS011;50493;50.970;10.082;2022-08-05T01:14:46;5.50;;;4.28;;
64188;SDS011;50493;50.970;10.082;2022-08-05T01:17:16;5.43;;;4.10;;
64188;SDS011;50493;50.970;10.082;2022-08-05T01:19:49;4.65;;;4.15;;
64188;SDS011;50493;50.970;10.082;2022-08-05T01:22:22;4.50;;;3.97;;
64188;SDS011;50493;50.970;10.082;2022-08-05T01:24:59;4.90;;;4.22;;
64188;SDS011;50493;50.970;10.082;2022-08-05T01:27:46;5.00;;;4.05;;
64188;SDS011;50493;50.970;10.082;2022-08-05T01:30:15;4.68;;;4.22;;
64188;SDS011;50493;50.970;10.082;2022-08-05T01:32:42;5.75;;;4.60;;
64188;SDS011;50493;50.970;10.082;2022-08-05T01:35:10;5.22;;;4.28;;
64188;SDS011;50493;50.970;10.082;2022-08-05T01:37:41;4.88;;;4.18;;
64188;SDS011;50493;50.970;10.082;2022-08-05T01:40:09;4.47;;;4.00;;
64188;SDS011;50493;50.970;10.082;2022-08-05T01:42:37;6.57;;;4.60;;
64188;SDS011;50493;50.970;10.082;2022-08-05T01:45:06;4.88;;;4.07;;
64188;SDS011;50493;50.970;10.082;2022-08-05T01:47:33;6.47;;;4.72;;
64188;SDS011;50493;50.970;10.082;2022-08-05T01:50:00;5.32;;;4.07;;
64188;SDS011;50493;50.970;10.082;2022-08-05T01:52:28;5.20;;;4.32;;
64188;SDS011;50493;50.970;10.082;2022-08-05T01:54:57;6.53;;;4.38;;
64188;SDS011;50493;50.970;10.082;2022-08-05T01:57:27;6.53;;;4.40;;
64188;SDS011;50493;50.970;10.082;2022-08-05T01:59:57;4.78;;;4.22;;
64188;SDS011;50493;50.970;10.082;2022-08-05T02:02:27;4.72;;;4.05;;
64188;SDS011;50493;50.970;10.082;2022-08-05T02:04:55;5.82;;;3.30;;
64188;SDS011;50493;50.970;10.082;2022-08-05T02:07:24;5.63;;;4.05;;
64188;SDS011;50493;50.970;10.082;2022-08-05T02:09:50;5.10;;;4.10;;
64188;SDS011;50493;50.970;10.082;2022-08-05T02:12:17;5.65;;;4.20;;
64188;SDS011;50493;50.970;10.082;2022-08-05T02:14:48;5.82;;;3.50;;
64188;SDS011;50493;50.970;10.082;2022-08-05T02:17:18;4.78;;;4.28;;
64188;SDS011;50493;50.970;10.082;2022-08-05T02:19:52;6.38;;;4.30;;
64188;SDS011;50493;50.970;10.082;2022-08-05T02:22:25;4.93;;;4.00;;
64188;SDS011;50493;50.970;10.082;2022-08-05T02:24:55;4.85;;;4.15;;
64188;SDS011;50493;50.970;10.082;2022-08-05T02:27:25;5.03;;;4.00;;
64188;SDS011;50493;50.970;10.082;2022-08-05T02:29:52;6.53;;;4.28;;
64188;SDS011;50493;50.970;10.082;2022-08-05T02:32:19;6.38;;;4.28;;
64188;SDS011;50493;50.970;10.082;2022-08-05T02:34:46;4.38;;;3.85;;
64188;SDS011;50493;50.970;10.082;2022-08-05T02:37:15;5.13;;;4.00;;
64188;SDS011;50493;50.970;10.082;2022-08-05T02:39:41;4.25;;;3.83;;
64188;SDS011;50493;50.970;10.082;2022-08-05T02:42:07;6.53;;;4.05;;
64188;SDS011;50493;50.970;10.082;2022-08-05T02:44:35;5.13;;;4.07;;
64188;SDS011;50493;50.970;10.082;2022-08-05T02:47:02;5.22;;;4.18;;
64188;SDS011;50493;50.970;10.082;2022-08-05T02:49:33;6.03;;;4.07;;
64188;SDS011;50493;50.970;10.082;2022-08-05T02:52:00;4.93;;;4.00;;
64188;SDS011;50493;50.970;10.082;2022-08-05T02:54:29;5.15;;;4.50;;
64188;SDS011;50493;50.970;10.082;2022-08-05T02:56:56;5.55;;;4.53;;
64188;SDS011;50493;50.970;10.082;2022-08-05T02:59:22;4.88;;;4.10;;
64188;SDS011;50493;50.970;10.082;2022-08-05T03:01:50;5.57;;;4.30;;
64188;SDS011;50493;50.970;10.082;2022-08-05T03:04:21;5.18;;;4.65;;
64188;SDS011;50493;50.970;10.082;2022-08-05T03:06:47;7.72;;;4.63;;
64188;SDS011;50493;50.970;10.082;2022-08-05T03:09:13;8.48;;;4.38;;
64188;SDS011;50493;50.970;10.082;2022-08-05T03:11:42;6.35;;;4.15;;
64188;SDS011;50493;50.970;10.082;2022-08-05T03:14:10;6.32;;;4.20;;
64188;SDS011;50493;50.970;10.082;2022-08-05T03:16:36;5.53;;;4.47;;
64188;SDS011;50493;50.970;10.082;2022-08-05T03:19:02;4.82;;;4.28;;
64188;SDS011;50493;50.970;10.082;2022-08-05T03:21:27;10.60;;;4.68;;
64188;SDS011;50493;50.970;10.082;2022-08-05T03:23:53;5.88;;;3.95;;
64188;SDS011;50493;50.970;10.082;2022-08-05T03:26:18;9.10;;;5.45;;
64188;SDS011;50493;50.970;10.082;2022-08-05T03:28:45;9.32;;;6.22;;
64188;SDS011;50493;50.970;10.082;2022-08-05T03:31:11;12.77;;;7.82;;
64188;SDS011;50493;50.970;10.082;2022-08-05T03:33:37;11.70;;;7.80;;
64188;SDS011;50493;50.970;10.082;2022-08-05T03:36:03;11.25;;;8.63;;
64188;SDS011;50493;50.970;10.082;2022-08-05T03:38:30;12.65;;;7.20;;
64188;SDS011;50493;50.970;10.082;2022-08-05T03:40:55;7.90;;;5.93;;
64188;SDS011;50493;50.970;10.082;2022-08-05T03:43:20;9.82;;;6.10;;
64188;SDS011;50493;50.970;10.082;2022-08-05T03:45:51;7.90;;;6.05;;
64188;SDS011;50493;50.970;10.082;2022-08-05T03:48:18;10.05;;;5.85;;
64188;SDS011;50493;50.970;10.082;2022-08-05T03:50:44;8.40;;;5.40;;
64188;SDS011;50493;50.970;10.082;2022-08-05T03:53:20;6.22;;;4.63;;
64188;SDS011;50493;50.970;10.082;2022-08-05T03:55:55;6.65;;;5.15;;
64188;SDS011;50493;50.970;10.082;2022-08-05T03:58:24;7.78;;;5.13;;
64188;SDS011;50493;50.970;10.082;2022-08-05T04:00:55;5.90;;;4.97;;
64188;SDS011;50493;50.970;10.082;2022-08-05T04:03:21;6.90;;;4.95;;
64188;SDS011;50493;50.970;10.082;2022-08-05T04:05:49;6.28;;;4.72;;
64188;SDS011;50493;50.970;10.082;2022-08-05T04:08:15;5.50;;;4.40;;
64188;SDS011;50493;50.970;10.082;2022-08-05T04:10:41;6.25;;;4.63;;
64188;SDS011;50493;50.970;10.082;2022-08-05T04:13:09;7.35;;;5.10;;
64188;SDS011;50493;50.970;10.082;2022-08-05T04:15:34;6.30;;;4.88;;
64188;SDS011;50493;50.970;10.082;2022-08-05T04:18:02;6.43;;;5.00;;
64188;SDS011;50493;50.970;10.082;2022-08-05T04:20:28;8.68;;;4.97;;
64188;SDS011;50493;50.970;10.082;2022-08-05T04:22:53;6.55;;;4.60;;
64188;SDS011;50493;50.970;10.082;2022-08-05T04:25:19;7.40;;;4.88;;
64188;SDS011;50493;50.970;10.082;2022-08-05T04:27:44;6.50;;;4.55;;
64188;SDS011;50493;50.970;10.082;2022-08-05T04:30:10;5.25;;;4.57;;
64188;SDS011;50493;50.970;10.082;2022-08-05T04:32:35;5.60;;;4.68;;
64188;SDS011;50493;50.970;10.082;2022-08-05T04:35:02;6.32;;;4.90;;
64188;SDS011;50493;50.970;10.082;2022-08-05T04:37:28;7.63;;;5.05;;
64188;SDS011;50493;50.970;10.082;2022-08-05T04:39:54;7.63;;;4.28;;
64188;SDS011;50493;50.970;10.082;2022-08-05T04:42:20;5.15;;;4.10;;
64188;SDS011;50493;50.970;10.082;2022-08-05T04:44:45;6.25;;;4.75;;
64188;SDS011;50493;50.970;10.082;2022-08-05T04:47:10;5.47;;;4.50;;
64188;SDS011;50493;50.970;10.082;2022-08-05T04:49:36;5.95;;;4.80;;
64188;SDS011;50493;50.970;10.082;2022-08-05T04:52:04;6.82;;;4.47;;
64188;SDS011;50493;50.970;10.082;2022-08-05T04:54:29;5.63;;;4.45;;
64188;SDS011;50493;50.970;10.082;2022-08-05T04:56:55;6.63;;;4.70;;
64188;SDS011;50493;50.970;10.082;2022-08-05T04:59:20;5.25;;;4.18;;
64188;SDS011;50493;50.970;10.082;2022-08-05T05:01:46;5.20;;;4.40;;
64188;SDS011;50493;50.970;10.082;2022-08-05T05:04:12;5.95;;;4.72;;
64188;SDS011;50493;50.970;10.082;2022-08-05T05:06:38;5.57;;;4.53;;
64188;SDS011;50493;50.970;10.082;2022-08-05T05:09:04;6.10;;;4.32;;
64188;SDS011;50493;50.970;10.082;2022-08-05T05:11:30;5.95;;;4.97;;
64188;SDS011;50493;50.970;10.082;2022-08-05T05:13:55;6.60;;;4.60;;
64188;SDS011;50493;50.970;10.082;2022-08-05T05:16:20;6.88;;;4.88;;
64188;SDS011;50493;50.970;10.082;2022-08-05T05:18:46;9.63;;;4.43;;
64188;SDS011;50493;50.970;10.082;2022-08-05T05:21:11;5.85;;;4.38;;
64188;SDS011;50493;50.970;10.082;2022-08-05T05:23:36;6.47;;;4.50;;
64188;SDS011;50493;50.970;10.082;2022-08-05T05:26:03;6.95;;;5.30;;
64188;SDS011;50493;50.970;10.082;2022-08-05T05:28:29;7.03;;;5.03;;
64188;SDS011;50493;50.970;10.082;2022-08-05T05:30:54;9.60;;;5.28;;
64188;SDS011;50493;50.970;10.082;2022-08-05T05:33:20;10.90;;;6.22;;
64188;SDS011;50493;50.970;10.082;2022-08-05T05:35:45;9.43;;;6.47;;
64188;SDS011;50493;50.970;10.082;2022-08-05T05:38:11;9.07;;;6.28;;
64188;SDS011;50493;50.970;10.082;2022-08-05T05:40:36;9.80;;;7.32;;
64188;SDS011;50493;50.970;10.082;2022-08-05T05:43:03;9.10;;;7.07;;
64188;SDS011;50493;50.970;10.082;2022-08-05T05:45:28;10.00;;;8.07;;
64188;SDS011;50493;50.970;10.082;2022-08-05T05:47:56;11.18;;;8.85;;
64188;SDS011;50493;50.970;10.082;2022-08-05T05:50:22;12.55;;;9.27;;
64188;SDS011;50493;50.970;10.082;2022-08-05T05:52:47;10.93;;;9.07;;
64188;SDS011;50493;50.970;10.082;2022-08-05T05:55:13;9.73;;;7.38;;
64188;SDS011;50493;50.970;10.082;2022-08-05T05:57:40;9.40;;;7.38;;
64188;SDS011;50493;50.970;10.082;2022-08-05T06:00:10;8.77;;;6.85;;
64188;SDS011;50493;50.970;10.082;2022-08-05T06:02:38;9.98;;;6.70;;
64188;SDS011;50493;50.970;10.082;2022-08-05T06:05:03;8.20;;;6.20;;
64188;SDS011;50493;50.970;10.082;2022-08-05T06:07:31;9.40;;;6.72;;
64188;SDS011;50493;50.970;10.082;2022-08-05T06:09:56;9.38;;;6.78;;
64188;SDS011;50493;50.970;10.082;2022-08-05T06:12:22;8.48;;;7.00;;
64188;SDS011;50493;50.970;10.082;2022-08-05T06:14:47;6.15;;;5.43;;
64188;SDS011;50493;50.970;10.082;2022-08-05T06:17:14;7.43;;;5.43;;
64188;SDS011;50493;50.970;10.082;2022-08-05T06:19:39;8.50;;;6.15;;
64188;SDS011;50493;50.970;10.082;2022-08-05T06:22:05;10.35;;;7.05;;
64188;SDS011;50493;50.970;10.082;2022-08-05T06:24:31;8.15;;;5.38;;
64188;SDS011;50493;50.970;10.082;2022-08-05T06:26:57;9.27;;;5.07;;
64188;SDS011;50493;50.970;10.082;2022-08-05T06:29:22;6.63;;;5.65;;
64188;SDS011;50493;50.970;10.082;2022-08-05T06:31:48;7.55;;;5.68;;
64188;SDS011;50493;50.970;10.082;2022-08-05T06:34:15;7.95;;;5.75;;
64188;SDS011;50493;50.970;10.082;2022-08-05T06:36:40;6.60;;;5.30;;
64188;SDS011;50493;50.970;10.082;2022-08-05T06:39:05;8.35;;;5.40;;
64188;SDS011;50493;50.970;10.082;2022-08-05T06:41:31;6.53;;;5.57;;
64188;SDS011;50493;50.970;10.082;2022-08-05T06:43:56;10.38;;;5.45;;
64188;SDS011;50493;50.970;10.082;2022-08-05T06:46:22;6.93;;;5.47;;
64188;SDS011;50493;50.970;10.082;2022-08-05T06:48:47;7.10;;;5.28;;
64188;SDS011;50493;50.970;10.082;2022-08-05T06:51:14;7.38;;;5.18;;
64188;SDS011;50493;50.970;10.082;2022-08-05T06:53:39;6.85;;;5.10;;
64188;SDS011;50493;50.970;10.082;2022-08-05T06:56:05;6.53;;;4.85;;
64188;SDS011;50493;50.970;10.082;2022-08-05T06:58:31;7.50;;;5.22;;
64188;SDS011;50493;50.970;10.082;2022-08-05T07:00:56;7.35;;;4.90;;
64188;SDS011;50493;50.970;10.082;2022-08-05T07:03:22;6.90;;;5.30;;
64188;SDS011;50493;50.970;10.082;2022-08-05T07:05:47;6.50;;;5.03;;
64188;SDS011;50493;50.970;10.082;2022-08-05T07:08:14;6.25;;;4.90;;
64188;SDS011;50493;50.970;10.082;2022-08-05T07:10:40;8.13;;;6.18;;
64188;SDS011;50493;50.970;10.082;2022-08-05T07:13:05;7.53;;;6.72;;
64188;SDS011;50493;50.970;10.082;2022-08-05T07:15:49;11.18;;;6.78;;
64188;SDS011;50493;50.970;10.082;2022-08-05T07:18:33;7.95;;;6.47;;
64188;SDS011;50493;50.970;10.082;2022-08-05T07:20:58;10.00;;;6.38;;
64188;SDS011;50493;50.970;10.082;2022-08-05T07:23:25;7.68;;;6.22;;
64188;SDS011;50493;50.970;10.082;2022-08-05T07:25:50;8.68;;;6.75;;
64188;SDS011;50493;50.970;10.082;2022-08-05T07:28:16;9.30;;;7.40;;
64188;SDS011;50493;50.970;10.082;2022-08-05T07:30:41;8.25;;;6.05;;
64188;SDS011;50493;50.970;10.082;2022-08-05T07:33:07;6.88;;;4.97;;
64188;SDS011;50493;50.970;10.082;2022-08-05T07:35:35;5.57;;;4.82;;
64188;SDS011;50493;50.970;10.082;2022-08-05T07:38:01;6.03;;;4.82;;
64188;SDS011;50493;50.970;10.082;2022-08-05T07:40:27;6.65;;;5.13;;
64188;SDS011;50493;50.970;10.082;2022-08-05T07:42:53;7.63;;;5.32;;
64188;SDS011;50493;50.970;10.082;2022-08-05T07:45:18;8.80;;;6.50;;
64188;SDS011;50493;50.970;10.082;2022-08-05T07:47:44;9.82;;;6.80;;
64188;SDS011;50493;50.970;10.082;2022-08-05T07:50:10;8.40;;;5.82;;
64188;SDS011;50493;50.970;10.082;2022-08-05T07:52:36;8.35;;;6.30;;
64188;SDS011;50493;50.970;10.082;2022-08-05T07:55:02;11.20;;;6.03;;
64188;SDS011;50493;50.970;10.082;2022-08-05T07:57:30;8.65;;;6.25;;
64188;SDS011;50493;50.970;10.082;2022-08-05T07:59:55;9.07;;;5.70;;
64188;SDS011;50493;50.970;10.082;2022-08-05T08:02:24;6.70;;;5.10;;
64188;SDS011;50493;50.970;10.082;2022-08-05T08:04:50;6.65;;;5.25;;
64188;SDS011;50493;50.970;10.082;2022-08-05T08:07:16;6.35;;;5.13;;
64188;SDS011;50493;50.970;10.082;2022-08-05T08:09:41;7.50;;;4.97;;
64188;SDS011;50493;50.970;10.082;2022-08-05T08:12:07;5.25;;;4.53;;
64188;SDS011;50493;50.970;10.082;2022-08-05T08:14:34;6.47;;;4.55;;
64188;SDS011;50493;50.970;10.082;2022-08-05T08:16:59;6.63;;;4.57;;
64188;SDS011;50493;50.970;10.082;2022-08-05T08:19:25;7.40;;;4.50;;
64188;SDS011;50493;50.970;10.082;2022-08-05T08:21:50;7.03;;;4.68;;
64188;SDS011;50493;50.970;10.082;2022-08-05T08:24:15;6.28;;;5.07;;
64188;SDS011;50493;50.970;10.082;2022-08-05T08:26:41;6.20;;;4.40;;
64188;SDS011;50493;50.970;10.082;2022-08-05T08:29:06;6.57;;;4.45;;
64188;SDS011;50493;50.970;10.082;2022-08-05T08:31:33;5.93;;;4.70;;
64188;SDS011;50493;50.970;10.082;2022-08-05T08:33:58;5.63;;;4.57;;
64188;SDS011;50493;50.970;10.082;2022-08-05T08:36:23;6.30;;;4.60;;
64188;SDS011;50493;50.970;10.082;2022-08-05T08:38:49;6.68;;;4.50;;
64188;SDS011;50493;50.970;10.082;2022-08-05T08:41:14;5.90;;;4.93;;
64188;SDS011;50493;50.970;10.082;2022-08-05T08:43:40;6.65;;;4.53;;
64188;SDS011;50493;50.970;10.082;2022-08-05T08:46:08;6.80;;;4.70;;
64188;SDS011;50493;50.970;10.082;2022-08-05T08:48:35;6.25;;;4.50;;
64188;SDS011;50493;50.970;10.082;2022-08-05T08:51:03;6.00;;;4.43;;
64188;SDS011;50493;50.970;10.082;2022-08-05T08:53:32;5.65;;;4.55;;
64188;SDS011;50493;50.970;10.082;2022-08-05T08:56:00;5.65;;;4.55;;
64188;SDS011;50493;50.970;10.082;2022-08-05T08:58:26;5.00;;;4.30;;
64188;SDS011;50493;50.970;10.082;2022-08-05T09:00:52;6.13;;;4.40;;
64188;SDS011;50493;50.970;10.082;2022-08-05T09:03:18;5.72;;;3.88;;
64188;SDS011;50493;50.970;10.082;2022-08-05T09:05:47;5.65;;;4.38;;
64188;SDS011;50493;50.970;10.082;2022-08-05T09:08:12;5.85;;;4.65;;
64188;SDS011;50493;50.970;10.082;2022-08-05T09:10:39;7.32;;;4.35;;
64188;SDS011;50493;50.970;10.082;2022-08-05T09:13:05;5.43;;;4.80;;
64188;SDS011;50493;50.970;10.082;2022-08-05T09:15:30;5.60;;;4.50;;
64188;SDS011;50493;50.970;10.082;2022-08-05T09:17:56;5.70;;;4.68;;
64188;SDS011;50493;50.970;10.082;2022-08-05T09:20:21;5.50;;;4.35;;
64188;SDS011;50493;50.970;10.082;2022-08-05T09:23:07;7.95;;;4.18;;
64188;SDS011;50493;50.970;10.082;2022-08-05T09:25:36;7.85;;;4.57;;
64188;SDS011;50493;50.970;10.082;2022-08-05T09:28:13;5.10;;;4.60;;
64188;SDS011;50493;50.970;10.082;2022-08-05T09:33:30;7.00;;;4.65;;
64188;SDS011;50493;50.970;10.082;2022-08-05T09:35:57;5.63;;;4.88;;
64188;SDS011;50493;50.970;10.082;2022-08-05T09:38:25;6.13;;;4.25;;
64188;SDS011;50493;50.970;10.082;2022-08-05T09:40:51;5.63;;;4.43;;
64188;SDS011;50493;50.970;10.082;2022-08-05T09:43:24;6.93;;;3.72;;
64188;SDS011;50493;50.970;10.082;2022-08-05T09:45:54;6.22;;;4.50;;
64188;SDS011;50493;50.970;10.082;2022-08-05T09:48:21;6.80;;;4.28;;
64188;SDS011;50493;50.970;10.082;2022-08-05T09:50:49;6.80;;;4.28;;
64188;SDS011;50493;50.970;10.082;2022-08-05T09:53:16;5.40;;;4.78;;
64188;SDS011;50493;50.970;10.082;2022-08-05T09:55:43;5.43;;;4.25;;
64188;SDS011;50493;50.970;10.082;2022-08-05T09:58:09;5.13;;;4.13;;
64188;SDS011;50493;50.970;10.082;2022-08-05T10:00:35;5.57;;;4.93;;
64188;SDS011;50493;50.970;10.082;2022-08-05T10:03:00;6.53;;;4.10;;
64188;SDS011;50493;50.970;10.082;2022-08-05T10:05:33;5.60;;;5.00;;
64188;SDS011;50493;50.970;10.082;2022-08-05T10:08:00;6.57;;;4.90;;
64188;SDS011;50493;50.970;10.082;2022-08-05T10:10:31;5.55;;;4.00;;
64188;SDS011;50493;50.970;10.082;2022-08-05T10:13:02;5.97;;;4.30;;
64188;SDS011;50493;50.970;10.082;2022-08-05T10:15:29;5.95;;;5.07;;
64188;SDS011;50493;50.970;10.082;2022-08-05T10:18:03;5.60;;;5.00;;
64188;SDS011;50493;50.970;10.082;2022-08-05T10:20:37;5.88;;;5.28;;
64188;SDS011;50493;50.970;10.082;2022-08-05T10:23:04;6.05;;;5.43;;
64188;SDS011;50493;50.970;10.082;2022-08-05T10:25:29;5.72;;;4.97;;
64188;SDS011;50493;50.970;10.082;2022-08-05T10:27:55;7.00;;;5.30;;
64188;SDS011;50493;50.970;10.082;2022-08-05T10:30:23;6.32;;;5.35;;
64188;SDS011;50493;50.970;10.082;2022-08-05T10:32:48;6.10;;;5.47;;
64188;SDS011;50493;50.970;10.082;2022-08-05T10:35:15;5.45;;;4.70;;
64188;SDS011;50493;50.970;10.082;2022-08-05T10:37:41;6.18;;;5.57;;
64188;SDS011;50493;50.970;10.082;2022-08-05T10:40:08;6.93;;;5.20;;
64188;SDS011;50493;50.970;10.082;2022-08-05T10:42:40;6.38;;;4.55;;
64188;SDS011;50493;50.970;10.082;2022-08-05T10:45:11;7.45;;;4.65;;
64188;SDS011;50493;50.970;10.082;2022-08-05T10:47:40;7.05;;;4.60;;
64188;SDS011;50493;50.970;10.082;2022-08-05T10:50:09;7.78;;;4.57;;
64188;SDS011;50493;50.970;10.082;2022-08-05T10:52:38;6.05;;;4.22;;
64188;SDS011;50493;50.970;10.082;2022-08-05T10:55:06;9.80;;;4.78;;
64188;SDS011;50493;50.970;10.082;2022-08-05T10:57:34;8.02;;;4.93;;
64188;SDS011;50493;50.970;10.082;2022-08-05T11:00:05;21.70;;;5.97;;
64188;SDS011;50493;50.970;10.082;2022-08-05T11:02:32;9.00;;;4.68;;
64188;SDS011;50493;50.970;10.082;2022-08-05T11:04:59;12.27;;;4.75;;
64188;SDS011;50493;50.970;10.082;2022-08-05T11:07:28;10.20;;;4.95;;
64188;SDS011;50493;50.970;10.082;2022-08-05T11:09:53;9.55;;;4.68;;
64188;SDS011;50493;50.970;10.082;2022-08-05T11:15:18;9.55;;;4.57;;
64188;SDS011;50493;50.970;10.082;2022-08-05T11:17:45;6.88;;;4.45;;
64188;SDS011;50493;50.970;10.082;2022-08-05T11:22:58;8.02;;;4.78;;
64188;SDS011;50493;50.970;10.082;2022-08-05T11:25:28;7.85;;;4.90;;
64188;SDS011;50493;50.970;10.082;2022-08-05T11:27:54;5.28;;;4.00;;
64188;SDS011;50493;50.970;10.082;2022-08-05T11:30:20;6.88;;;5.03;;
64188;SDS011;50493;50.970;10.082;2022-08-05T11:32:46;5.45;;;3.70;;
64188;SDS011;50493;50.970;10.082;2022-08-05T11:38:11;6.10;;;3.90;;
64188;SDS011;50493;50.970;10.082;2022-08-05T11:40:56;5.70;;;3.60;;
64188;SDS011;50493;50.970;10.082;2022-08-05T11:43:23;6.80;;;3.50;;
64188;SDS011;50493;50.970;10.082;2022-08-05T11:45:49;5.28;;;3.97;;
64188;SDS011;50493;50.970;10.082;2022-08-05T11:48:14;5.03;;;4.18;;
64188;SDS011;50493;50.970;10.082;2022-08-05T11:50:40;6.63;;;4.38;;
64188;SDS011;50493;50.970;10.082;2022-08-05T11:53:06;7.03;;;4.40;;
64188;SDS011;50493;50.970;10.082;2022-08-05T11:55:33;5.82;;;4.97;;
64188;SDS011;50493;50.970;10.082;2022-08-05T11:57:58;5.00;;;3.67;;
64188;SDS011;50493;50.970;10.082;2022-08-05T12:00:24;7.78;;;5.22;;
64188;SDS011;50493;50.970;10.082;2022-08-05T12:02:50;5.97;;;4.30;;
64188;SDS011;50493;50.970;10.082;2022-08-05T12:05:23;5.53;;;4.78;;
64188;SDS011;50493;50.970;10.082;2022-08-05T12:07:50;5.18;;;4.68;;
64188;SDS011;50493;50.970;10.082;2022-08-05T12:10:15;6.25;;;4.85;;
64188;SDS011;50493;50.970;10.082;2022-08-05T12:12:44;5.95;;;4.40;;
64188;SDS011;50493;50.970;10.082;2022-08-05T12:15:17;6.30;;;4.80;;
64188;SDS011;50493;50.970;10.082;2022-08-05T12:17:43;5.43;;;3.72;;
64188;SDS011;50493;50.970;10.082;2022-08-05T12:20:10;6.30;;;4.18;;
64188;SDS011;50493;50.970;10.082;2022-08-05T12:22:36;6.28;;;4.72;;
64188;SDS011;50493;50.970;10.082;2022-08-05T12:25:03;6.57;;;4.10;;
64188;SDS011;50493;50.970;10.082;2022-08-05T12:27:30;6.13;;;4.20;;
64188;SDS011;50493;50.970;10.082;2022-08-05T12:30:02;5.82;;;5.22;;
64188;SDS011;50493;50.970;10.082;2022-08-05T12:32:30;5.53;;;4.88;;
64188;SDS011;50493;50.970;10.082;2022-08-05T12:34:55;6.22;;;5.25;;
64188;SDS011;50493;50.970;10.082;2022-08-05T12:37:21;5.68;;;5.07;;
64188;SDS011;50493;50.970;10.082;2022-08-05T12:39:48;6.95;;;5.13;;
64188;SDS011;50493;50.970;10.082;2022-08-05T12:42:15;6.13;;;4.57;;
64188;SDS011;50493;50.970;10.082;2022-08-05T12:44:41;6.68;;;5.30;;
64188;SDS011;50493;50.970;10.082;2022-08-05T12:47:09;6.35;;;4.88;;
64188;SDS011;50493;50.970;10.082;2022-08-05T12:49:39;6.15;;;5.07;;
64188;SDS011;50493;50.970;10.082;2022-08-05T12:52:10;5.30;;;4.25;;
64188;SDS011;50493;50.970;10.082;2022-08-05T12:54:37;6.13;;;5.25;;
64188;SDS011;50493;50.970;10.082;2022-08-05T12:57:06;6.00;;;5.40;;
64188;SDS011;50493;50.970;10.082;2022-08-05T12:59:41;8.23;;;4.22;;
64188;SDS011;50493;50.970;10.082;2022-08-05T13:02:10;5.40;;;4.18;;
64188;SDS011;50493;50.970;10.082;2022-08-05T13:04:37;6.82;;;4.38;;
64188;SDS011;50493;50.970;10.082;2022-08-05T13:07:04;13.90;;;5.13;;
64188;SDS011;50493;50.970;10.082;2022-08-05T13:09:34;7.22;;;4.30;;
64188;SDS011;50493;50.970;10.082;2022-08-05T13:12:00;7.38;;;4.53;;
64188;SDS011;50493;50.970;10.082;2022-08-05T13:14:28;7.05;;;4.07;;
64188;SDS011;50493;50.970;10.082;2022-08-05T13:17:00;9.07;;;4.55;;
64188;SDS011;50493;50.970;10.082;2022-08-05T13:19:27;11.93;;;4.75;;
64188;SDS011;50493;50.970;10.082;2022-08-05T13:21:53;5.95;;;4.00;;
64188;SDS011;50493;50.970;10.082;2022-08-05T13:24:19;5.78;;;4.38;;
64188;SDS011;50493;50.970;10.082;2022-08-05T13:26:47;5.60;;;4.35;;
64188;SDS011;50493;50.970;10.082;2022-08-05T13:29:13;13.68;;;4.30;;
64188;SDS011;50493;50.970;10.082;2022-08-05T13:31:40;5.75;;;4.20;;
64188;SDS011;50493;50.970;10.082;2022-08-05T13:34:06;8.07;;;4.72;;
64188;SDS011;50493;50.970;10.082;2022-08-05T13:36:33;18.27;;;5.35;;
64188;SDS011;50493;50.970;10.082;2022-08-05T13:38:59;35.80;;;8.65;;
64188;SDS011;50493;50.970;10.082;2022-08-05T13:41:25;15.38;;;9.10;;
64188;SDS011;50493;50.970;10.082;2022-08-05T13:43:51;13.63;;;8.65;;
64188;SDS011;50493;50.970;10.082;2022-08-05T13:46:16;16.35;;;8.73;;
64188;SDS011;50493;50.970;10.082;2022-08-05T13:48:41;14.52;;;8.57;;
64188;SDS011;50493;50.970;10.082;2022-08-05T13:51:07;22.23;;;8.88;;
64188;SDS011;50493;50.970;10.082;2022-08-05T13:53:35;12.43;;;9.27;;
64188;SDS011;50493;50.970;10.082;2022-08-05T13:56:01;11.88;;;8.48;;
64188;SDS011;50493;50.970;10.082;2022-08-05T13:58:27;17.30;;;9.35;;
64188;SDS011;50493;50.970;10.082;2022-08-05T14:00:53;13.25;;;8.70;;
64188;SDS011;50493;50.970;10.082;2022-08-05T14:03:18;11.18;;;8.38;;
64188;SDS011;50493;50.970;10.082;2022-08-05T14:05:44;12.68;;;7.97;;
64188;SDS011;50493;50.970;10.082;2022-08-05T14:08:09;14.63;;;8.73;;
64188;SDS011;50493;50.970;10.082;2022-08-05T14:10:36;12.55;;;8.40;;
64188;SDS011;50493;50.970;10.082;2022-08-05T14:13:02;24.58;;;9.23;;
64188;SDS011;50493;50.970;10.082;2022-08-05T14:15:31;13.32;;;8.00;;
64188;SDS011;50493;50.970;10.082;2022-08-05T14:17:56;12.65;;;8.07;;
64188;SDS011;50493;50.970;10.082;2022-08-05T14:20:22;13.55;;;8.68;;
64188;SDS011;50493;50.970;10.082;2022-08-05T14:22:47;12.93;;;8.10;;
64188;SDS011;50493;50.970;10.082;2022-08-05T14:25:12;14.85;;;8.43;;
64188;SDS011;50493;50.970;10.082;2022-08-05T14:27:40;10.38;;;7.60;;
64188;SDS011;50493;50.970;10.082;2022-08-05T14:30:05;12.10;;;7.43;;
64188;SDS011;50493;50.970;10.082;2022-08-05T14:32:31;38.17;;;8.85;;
64188;SDS011;50493;50.970;10.082;2022-08-05T14:34:57;32.83;;;8.75;;
64188;SDS011;50493;50.970;10.082;2022-08-05T14:37:23;11.15;;;6.40;;
64188;SDS011;50493;50.970;10.082;2022-08-05T14:39:48;10.55;;;6.65;;
64188;SDS011;50493;50.970;10.082;2022-08-05T14:42:14;11.98;;;6.32;;
64188;SDS011;50493;50.970;10.082;2022-08-05T14:44:40;8.23;;;5.70;;